Time;durP1;ratioP1;P1;durP2;ratioP2;P2;SDS_P1;SDS_P2;PMS_P1;PMS_P2;Temp;Humidity;BMP_temperature;BMP_pressure;BME280_temperature;BME280_humidity;BME280_pressure;Samples;Min_cycle;Max_cycle;Signal;HPM_P1;HPM_P2
2022/12/01 00:01:06;;;;;;;35.60;18.48;;;;;;;7.29;86.06;102618.78;5013042;28;20037;-62
2022/12/01 00:03:32;;;;;;;35.53;18.48;;;;;;;7.28;86.60;102622.25;5013308;28;20113;-62
2022/12/01 00:06:05;;;;;;;33.92;17.05;;;;;;;7.22;87.31;102609.66;5012838;28;20038;-62
2022/12/01 00:08:31;;;;;;;34.25;17.88;;;;;;;7.23;86.97;102610.53;5013237;28;20521;-63
2022/12/01 00:11:09;;;;;;;38.35;19.13;;;;;;;7.24;86.99;102620.28;5012799;28;20080;-62
2022/12/01 00:13:35;;;;;;;35.88;18.77;;;;;;;7.21;87.08;102615.75;5013245;28;20033;-62
2022/12/01 00:16:15;;;;;;;35.15;18.00;;;;;;;7.23;86.87;102619.34;5012931;28;20022;-62
2022/12/01 00:18:41;;;;;;;34.55;17.90;;;;;;;7.20;87.60;102616.56;5013024;28;20145;-63
2022/12/01 00:21:13;;;;;;;39.40;19.08;;;;;;;7.10;86.59;102609.00;5013204;28;20179;-62
2022/12/01 00:23:42;;;;;;;40.25;19.10;;;;;;;7.11;87.47;102616.09;5013214;28;20029;-62
2022/12/01 00:26:07;;;;;;;38.33;19.27;;;;;;;7.03;87.82;102612.16;5013234;28;20123;-62
2022/12/01 00:28:32;;;;;;;43.30;19.98;;;;;;;7.00;87.31;102614.59;5012847;28;20498;-62
2022/12/01 00:30:59;;;;;;;42.92;19.52;;;;;;;7.00;87.79;102606.72;5012898;28;20029;-62
2022/12/01 00:33:24;;;;;;;46.45;21.63;;;;;;;6.98;87.93;102604.00;5013027;28;20034;-62
2022/12/01 00:35:56;;;;;;;42.13;19.55;;;;;;;7.01;87.73;102609.41;5012814;28;20026;-62
2022/12/01 00:38:21;;;;;;;47.57;19.80;;;;;;;7.02;87.59;102616.50;5012856;28;20076;-63
2022/12/01 00:40:46;;;;;;;44.97;19.95;;;;;;;7.07;88.07;102606.22;5012327;28;20466;-63
2022/12/01 00:43:12;;;;;;;44.17;19.33;;;;;;;7.03;88.06;102610.41;4995160;28;20049;-62
2022/12/01 00:45:37;;;;;;;44.35;20.17;;;;;;;6.99;88.48;102608.44;5013065;28;20034;-62
2022/12/01 00:48:03;;;;;;;44.65;19.70;;;;;;;6.96;88.57;102608.28;5012706;28;20485;-62
2022/12/01 00:50:28;;;;;;;45.35;20.67;;;;;;;6.94;88.61;102609.03;5012877;28;20034;-62
2022/12/01 00:52:53;;;;;;;49.13;22.05;;;;;;;6.89;88.61;102607.84;5012587;28;20522;-62
2022/12/01 00:55:19;;;;;;;48.58;21.25;;;;;;;6.84;89.04;102610.22;4995064;28;20467;-62
2022/12/01 00:57:44;;;;;;;44.03;19.13;;;;;;;6.84;88.99;102611.97;4995005;28;20030;-62
2022/12/01 01:00:11;;;;;;;45.38;20.02;;;;;;;6.84;89.38;102615.50;5012780;28;20050;-62
2022/12/01 01:02:38;;;;;;;48.45;20.55;;;;;;;6.87;89.74;102609.50;5012745;28;20030;-62
2022/12/01 01:05:04;;;;;;;44.75;20.40;;;;;;;6.89;89.52;102614.00;5012747;28;20026;-62
2022/12/01 01:07:29;;;;;;;45.53;20.38;;;;;;;6.86;89.44;102613.88;5012733;28;20026;-63
2022/12/01 01:09:54;;;;;;;51.55;20.48;;;;;;;6.85;89.22;102617.31;5012475;28;20026;-62
2022/12/01 01:12:20;;;;;;;48.97;20.58;;;;;;;6.87;89.54;102618.28;5012196;28;20026;-63
2022/12/01 01:14:45;;;;;;;52.28;21.02;;;;;;;6.90;89.54;102621.09;5012319;28;20418;-63
2022/12/01 01:17:10;;;;;;;46.22;20.92;;;;;;;6.95;89.04;102626.59;5013153;28;20050;-62
2022/12/01 01:19:36;;;;;;;53.65;20.35;;;;;;;6.92;89.33;102624.69;5015810;28;20037;-62
2022/12/01 01:22:01;;;;;;;45.20;20.10;;;;;;;6.96;88.76;102628.41;5015727;28;20042;-62
2022/12/01 01:24:27;;;;;;;48.05;20.20;;;;;;;6.96;89.00;102625.75;5015784;28;20033;-62
2022/12/01 01:26:54;;;;;;;42.47;20.02;;;;;;;6.99;88.56;102631.19;5015732;28;20080;-62
2022/12/01 01:29:20;;;;;;;46.25;19.52;;;;;;;6.96;88.43;102628.41;5015898;28;20030;-62
2022/12/01 01:31:45;;;;;;;45.47;19.30;;;;;;;6.97;88.30;102632.81;5015636;28;20022;-64
2022/12/01 01:34:11;;;;;;;46.28;19.45;;;;;;;6.92;88.37;102629.94;5015616;28;20026;-62
2022/12/01 01:36:36;;;;;;;38.97;17.63;;;;;;;6.87;89.23;102635.78;4997929;28;20108;-63
2022/12/01 01:39:02;;;;;;;41.67;19.25;;;;;;;6.87;88.89;102644.56;5015440;28;20022;-63
2022/12/01 01:41:28;;;;;;;42.50;19.20;;;;;;;6.90;88.95;102647.38;5014911;28;20061;-62
2022/12/01 01:43:56;;;;;;;44.40;19.48;;;;;;;6.92;87.93;102650.06;5015619;28;20056;-63
2022/12/01 01:46:31;;;;;;;39.75;18.02;;;;;;;6.91;88.83;102637.75;5015426;28;20022;-63
2022/12/01 01:49:08;;;;;;;40.80;18.15;;;;;;;6.99;89.28;102647.88;5015228;28;20029;-63
2022/12/01 01:51:49;;;;;;;40.63;18.08;;;;;;;6.98;88.36;102643.44;5015235;28;20041;-62
2022/12/01 01:54:36;;;;;;;41.40;18.83;;;;;;;6.96;88.40;102638.91;4997700;28;20030;-63
2022/12/01 01:57:05;;;;;;;44.85;19.67;;;;;;;6.99;88.28;102639.09;5015295;28;20038;-62
2022/12/01 01:59:36;;;;;;;43.13;18.80;;;;;;;6.99;88.65;102641.72;5015187;28;20364;-62
2022/12/01 02:02:08;;;;;;;49.17;19.52;;;;;;;6.96;88.58;102636.28;5015130;28;20034;-63
2022/12/01 02:04:36;;;;;;;46.58;19.77;;;;;;;6.93;88.38;102642.25;5015113;28;20026;-62
2022/12/01 02:07:02;;;;;;;44.38;19.27;;;;;;;6.93;88.25;102639.63;5015081;28;20018;-63
2022/12/01 02:09:28;;;;;;;42.92;19.17;;;;;;;6.93;87.79;102638.72;5015158;28;20144;-63
2022/12/01 02:12:16;;;;;;;47.28;19.67;;;;;;;6.90;87.98;102643.84;5014728;28;20026;-62
2022/12/01 02:15:04;;;;;;;48.28;19.33;;;;;;;6.95;88.50;102645.88;5014918;28;20036;-62
2022/12/01 02:17:50;;;;;;;48.55;19.65;;;;;;;6.98;88.78;102639.88;5014887;28;20036;-62
2022/12/01 02:20:40;;;;;;;44.75;20.08;;;;;;;6.94;88.65;102632.69;5014911;28;20049;-62
2022/12/01 02:23:30;;;;;;;48.28;20.27;;;;;;;6.91;88.29;102636.03;5014652;28;20100;-63
2022/12/01 02:26:01;;;;;;;46.72;18.65;;;;;;;6.93;89.17;102639.63;5014686;28;20030;-63
2022/12/01 02:28:50;;;;;;;45.67;19.02;;;;;;;6.97;88.07;102635.44;5014640;28;20025;-62
2022/12/01 02:31:42;;;;;;;44.90;18.83;;;;;;;7.01;88.53;102645.31;5014654;28;20025;-62
2022/12/01 02:34:36;;;;;;;39.67;18.17;;;;;;;7.01;88.26;102648.84;5003746;28;20517;-62
2022/12/01 02:37:09;;;;;;;46.75;19.77;;;;;;;6.99;88.56;102642.59;5014455;28;20467;-62
2022/12/01 02:39:43;;;;;;;41.60;19.13;;;;;;;6.98;89.04;102638.19;5014460;28;20033;-62
2022/12/01 02:42:48;;;;;;;47.67;20.25;;;;;;;6.99;88.36;102639.09;5013888;28;20054;-62
2022/12/01 02:45:09;;;;;;;47.78;19.58;;;;;;;7.00;88.73;102638.25;5014049;28;20135;-62
2022/12/01 02:47:36;;;;;;;44.45;19.02;;;;;;;7.02;88.82;102641.84;5014530;28;20029;-63
2022/12/01 02:50:03;;;;;;;44.80;19.45;;;;;;;6.99;88.60;102639.97;5014202;28;20057;-62
2022/12/01 02:52:29;;;;;;;44.28;20.38;;;;;;;6.98;88.90;102643.44;5014094;28;20021;-62
2022/12/01 02:54:55;;;;;;;49.65;21.48;;;;;;;6.93;88.65;102641.34;5014064;28;20157;-63
2022/12/01 02:57:22;;;;;;;46.40;20.20;;;;;;;6.90;88.63;102642.13;5014256;28;20038;-63
2022/12/01 02:59:52;;;;;;;49.63;21.95;;;;;;;6.85;89.19;102640.97;5014331;28;20145;-62
2022/12/01 03:02:47;;;;;;;51.15;20.83;;;;;;;6.85;88.70;102637.41;5014381;28;20471;-62
2022/12/01 03:05:30;;;;;;;49.75;19.92;;;;;;;6.85;88.79;102650.53;5014162;28;20022;-63
2022/12/01 03:08:19;;;;;;;51.05;20.80;;;;;;;6.83;89.50;102653.09;5013978;28;20030;-62
2022/12/01 03:11:00;;;;;;;47.80;20.02;;;;;;;6.80;89.46;102645.03;5013687;28;20110;-63
2022/12/01 03:13:31;;;;;;;50.13;20.42;;;;;;;6.80;89.98;102641.50;4996190;28;20025;-63
2022/12/01 03:16:02;;;;;;;47.45;20.80;;;;;;;6.83;89.71;102653.09;5013766;28;20053;-62
2022/12/01 03:18:35;;;;;;;46.00;20.20;;;;;;;6.84;89.24;102643.50;5013781;28;20476;-62
2022/12/01 03:21:22;;;;;;;;;;;;;;;6.92;88.72;102645.72;5014356;28;20113;-62
2022/12/01 03:23:54;;;;;;;40.90;18.40;;;;;;;6.88;89.33;102649.00;5013702;28;20329;-63
2022/12/01 03:26:23;;;;;;;49.17;19.98;;;;;;;6.87;89.07;102641.03;5013786;28;20026;-63
2022/12/01 03:28:53;;;;;;;45.55;19.13;;;;;;;6.84;88.91;102644.38;5013810;28;20038;-62
2022/12/01 03:31:25;;;;;;;41.97;19.60;;;;;;;6.86;89.39;102644.50;5013606;28;20335;-62
2022/12/01 03:34:03;;;;;;;40.58;18.95;;;;;;;6.89;88.64;102642.00;5013464;28;20029;-63
2022/12/01 03:36:38;;;;;;;45.80;19.10;;;;;;;6.86;89.34;102637.50;5013486;28;20059;-62
2022/12/01 03:39:08;;;;;;;43.72;20.65;;;;;;;6.81;88.47;102636.38;5013654;28;20115;-62
2022/12/01 03:41:41;;;;;;;45.28;19.65;;;;;;;6.84;88.70;102639.13;5012412;28;20046;-62
2022/12/01 03:44:13;;;;;;;;;;;;;;;6.88;89.06;102642.84;5013847;28;20507;-62
2022/12/01 03:46:50;;;;;;;44.60;19.65;;;;;;;6.82;88.82;102645.16;5013344;28;19917;-62
2022/12/01 03:49:17;;;;;;;45.80;20.60;;;;;;;6.79;88.75;102638.00;5013578;28;20026;-62
2022/12/01 03:51:57;;;;;;;39.03;18.40;;;;;;;6.85;89.12;102646.22;5013254;28;20467;-62
2022/12/01 03:54:53;;;;;;;41.40;19.35;;;;;;;6.85;88.79;102640.97;5013158;28;20160;-64
2022/12/01 03:57:34;;;;;;;40.95;20.05;;;;;;;6.86;89.11;102641.88;5013228;28;20471;-62
2022/12/01 04:00:00;;;;;;;38.97;18.88;;;;;;;6.85;89.45;102651.47;5013252;28;20034;-62
2022/12/01 04:02:27;;;;;;;39.03;18.20;;;;;;;6.85;88.75;102646.22;5013074;28;20030;-62
2022/12/01 04:04:53;;;;;;;45.05;20.88;;;;;;;6.86;89.39;102653.28;5012984;28;20041;-63
2022/12/01 04:07:19;;;;;;;38.38;18.83;;;;;;;6.84;89.14;102654.00;5013083;28;20125;-62
2022/12/01 04:09:45;;;;;;;41.53;19.45;;;;;;;6.87;88.63;102655.06;5013038;28;20022;-63
2022/12/01 04:12:33;;;;;;;39.28;18.55;;;;;;;6.88;88.82;102655.97;5012810;28;20018;-62
2022/12/01 04:15:11;;;;;;;39.33;18.98;;;;;;;6.87;89.04;102655.06;4995255;28;20383;-63
2022/12/01 04:17:43;;;;;;;45.45;19.73;;;;;;;6.87;89.01;102654.19;5013286;28;20034;-63
2022/12/01 04:20:12;;;;;;;41.47;18.85;;;;;;;6.84;88.41;102656.63;5012950;28;20030;-62
2022/12/01 04:22:37;;;;;;;42.60;19.52;;;;;;;6.84;89.48;102657.53;5013242;28;20026;-62
2022/12/01 04:25:04;;;;;;;37.38;17.98;;;;;;;6.86;89.31;102657.63;5012877;28;20407;-62
2022/12/01 04:27:30;;;;;;;39.53;20.20;;;;;;;6.89;89.38;102650.78;4995795;28;20088;-62
2022/12/01 04:29:55;;;;;;;37.40;18.60;;;;;;;6.91;89.31;102654.44;5013007;28;20022;-64
2022/12/01 04:32:20;;;;;;;39.95;19.08;;;;;;;6.94;88.98;102658.97;4995360;28;20467;-63
2022/12/01 04:34:46;;;;;;;40.88;19.17;;;;;;;6.93;88.92;102649.25;5012733;28;20109;-62
2022/12/01 04:37:11;;;;;;;38.35;18.83;;;;;;;6.91;89.48;102643.00;5012756;28;20479;-63
2022/12/01 04:39:37;;;;;;;38.67;19.35;;;;;;;6.91;89.42;102645.63;5012774;28;20434;-63
2022/12/01 04:42:03;;;;;;;38.45;18.50;;;;;;;6.91;89.36;102653.53;5012296;28;20052;-63
2022/12/01 04:44:29;;;;;;;36.30;18.45;;;;;;;6.89;89.02;102642.91;4995070;28;20037;-62
2022/12/01 04:46:54;;;;;;;40.72;19.08;;;;;;;6.90;90.08;102649.09;4995305;28;20080;-63
2022/12/01 04:49:20;;;;;;;36.72;19.38;;;;;;;6.89;90.19;102645.53;5012757;28;20030;-62
2022/12/01 04:51:47;;;;;;;40.50;19.90;;;;;;;6.90;90.03;102652.63;5012945;28;20379;-63
2022/12/01 04:54:12;;;;;;;36.55;18.00;;;;;;;6.93;88.98;102643.97;5016310;28;20486;-63
2022/12/01 04:56:38;;;;;;;36.78;18.45;;;;;;;6.95;89.58;102651.16;5016330;28;20049;-63
2022/12/01 04:59:03;;;;;;;40.50;19.50;;;;;;;6.94;89.46;102653.72;5016279;28;20117;-62
2022/12/01 05:01:29;;;;;;;39.28;18.90;;;;;;;6.99;89.12;102649.59;5016465;28;20105;-63
2022/12/01 05:03:54;;;;;;;44.08;19.30;;;;;;;6.99;88.22;102644.34;5016178;28;20398;-62
2022/12/01 05:06:23;;;;;;;38.97;18.92;;;;;;;6.95;88.95;102640.63;5016301;28;20084;-62
2022/12/01 05:08:50;;;;;;;38.15;18.63;;;;;;;6.93;88.61;102643.97;5016026;28;20031;-63
2022/12/01 05:11:17;;;;;;;35.85;18.02;;;;;;;6.94;89.12;102645.81;5015849;28;20407;-62
2022/12/01 05:13:44;;;;;;;35.88;18.05;;;;;;;6.91;88.91;102641.28;5016142;28;20101;-62
2022/12/01 05:16:16;;;;;;;36.25;18.92;;;;;;;6.90;89.19;102647.38;5015853;28;20034;-62
2022/12/01 05:18:45;;;;;;;35.35;17.85;;;;;;;6.92;89.07;102648.34;5016217;28;20030;-62
2022/12/01 05:21:11;;;;;;;37.65;17.90;;;;;;;6.92;89.28;102643.09;5016139;28;20430;-63
2022/12/01 05:23:38;;;;;;;34.28;17.55;;;;;;;6.89;89.09;102653.41;5015875;28;20117;-62
2022/12/01 05:26:05;;;;;;;33.13;17.63;;;;;;;6.91;88.99;102650.91;5015717;28;20026;-62
2022/12/01 05:28:30;;;;;;;38.22;18.83;;;;;;;6.93;88.80;102654.50;5015880;28;20022;-62
2022/12/01 05:30:56;;;;;;;39.17;18.60;;;;;;;6.91;89.20;102654.44;5015984;28;20088;-62
2022/12/01 05:33:23;;;;;;;36.08;17.92;;;;;;;6.90;88.83;102651.72;5015515;28;20038;-62
2022/12/01 05:35:50;;;;;;;35.90;17.98;;;;;;;6.86;89.23;102662.88;5015520;28;20037;-62
2022/12/01 05:38:15;;;;;;;37.33;18.05;;;;;;;6.87;88.68;102662.06;5015679;28;20026;-62
2022/12/01 05:40:41;;;;;;;34.08;18.15;;;;;;;6.85;88.70;102659.34;5015504;28;20036;-62
2022/12/01 05:43:07;;;;;;;39.15;17.95;;;;;;;6.77;89.22;102660.66;5015250;28;20491;-62
2022/12/01 05:45:33;;;;;;;35.42;17.15;;;;;;;6.85;89.70;102669.88;5015370;28;20481;-62
2022/12/01 05:48:00;;;;;;;35.22;17.48;;;;;;;6.86;89.02;102666.41;5015118;28;20026;-63
2022/12/01 05:50:28;;;;;;;35.97;18.25;;;;;;;6.86;88.71;102670.78;5015276;28;20030;-62
2022/12/01 05:52:53;;;;;;;38.28;18.35;;;;;;;6.79;89.43;102659.00;5015210;28;20566;-63
2022/12/01 05:55:19;;;;;;;38.42;18.02;;;;;;;6.76;89.42;102657.09;5015069;28;20109;-62
2022/12/01 05:57:45;;;;;;;40.75;18.92;;;;;;;6.76;89.37;102664.97;5015309;28;20116;-62
2022/12/01 06:00:12;;;;;;;39.47;18.80;;;;;;;6.75;89.23;102663.19;5015348;28;20475;-63
2022/12/01 06:02:41;;;;;;;44.40;19.25;;;;;;;6.73;89.50;102664.84;5014804;28;20029;-62
2022/12/01 06:05:08;;;;;;;40.58;19.85;;;;;;;6.72;89.45;102660.41;5015018;28;20050;-62
2022/12/01 06:07:34;;;;;;;43.13;19.30;;;;;;;6.73;89.59;102667.47;5015162;28;20101;-63
2022/12/01 06:10:00;;;;;;;39.47;18.98;;;;;;;6.71;89.62;102665.56;5015112;28;20113;-63
2022/12/01 06:12:27;;;;;;;41.20;19.35;;;;;;;6.69;90.35;102673.38;5014773;28;20487;-62
2022/12/01 06:14:53;;;;;;;40.28;19.55;;;;;;;6.65;89.91;102665.22;5015005;28;20426;-62
2022/12/01 06:17:18;;;;;;;36.30;18.70;;;;;;;6.61;89.94;102666.78;5015109;28;20030;-62
2022/12/01 06:19:44;;;;;;;39.67;18.70;;;;;;;6.64;89.83;102669.59;5014788;28;20384;-62
2022/12/01 06:22:09;;;;;;;39.70;18.80;;;;;;;6.62;89.53;102671.19;5014735;28;20113;-62
2022/12/01 06:24:35;;;;;;;41.05;19.33;;;;;;;6.65;90.12;102667.84;5014684;28;20034;-62
2022/12/01 06:27:00;;;;;;;40.08;19.10;;;;;;;6.64;89.85;102660.81;5014659;28;20022;-62
2022/12/01 06:29:26;;;;;;;42.03;20.58;;;;;;;6.64;90.01;102663.44;5014604;28;20033;-62
2022/12/01 06:31:51;;;;;;;38.00;20.00;;;;;;;6.59;89.75;102663.13;5014465;28;20112;-62
2022/12/01 06:34:16;;;;;;;43.08;19.13;;;;;;;6.54;89.99;102672.50;5014603;28;20483;-62
2022/12/01 06:36:42;;;;;;;40.78;18.45;;;;;;;6.52;90.17;102668.88;5014622;28;20022;-62
2022/12/01 06:39:08;;;;;;;40.60;19.02;;;;;;;6.49;90.26;102666.97;5014629;28;20053;-63
2022/12/01 06:41:38;;;;;;;42.00;18.75;;;;;;;6.49;90.40;102673.97;4997982;28;20046;-63
2022/12/01 06:44:04;;;;;;;37.58;18.67;;;;;;;6.48;90.23;102672.16;5033008;28;20553;-62
2022/12/01 06:46:31;;;;;;;38.97;19.35;;;;;;;6.51;89.86;102669.72;5034039;28;20430;-63
2022/12/01 06:48:56;;;;;;;40.33;18.50;;;;;;;6.57;90.67;102679.66;5034058;28;20105;-62
2022/12/01 06:51:22;;;;;;;40.22;18.83;;;;;;;6.57;89.95;102677.03;5033886;28;20107;-62
2022/12/01 06:53:52;;;;;;;41.88;19.00;;;;;;;6.58;90.14;102686.69;5015812;28;20040;-62
2022/12/01 06:56:17;;;;;;;41.67;19.52;;;;;;;6.57;90.43;102693.69;5016345;28;20037;-63
2022/12/01 06:58:42;;;;;;;40.30;18.35;;;;;;;6.59;89.61;102693.75;5033723;28;20030;-62
2022/12/01 07:01:10;;;;;;;38.88;18.95;;;;;;;6.59;89.65;102697.28;5033798;28;20057;-63
2022/12/01 07:03:36;;;;;;;39.47;17.95;;;;;;;6.61;89.95;102700.03;5033667;28;20409;-62
2022/12/01 07:06:02;;;;;;;41.42;17.92;;;;;;;6.64;89.45;102706.34;5033699;28;20029;-63
2022/12/01 07:08:29;;;;;;;40.30;18.20;;;;;;;6.63;89.35;102708.88;5033699;28;20032;-62
2022/12/01 07:11:03;;;;;;;42.75;19.25;;;;;;;6.64;89.29;102703.72;5033309;28;20486;-62
2022/12/01 07:13:29;;;;;;;37.08;17.48;;;;;;;6.64;89.25;102711.59;5033365;28;20057;-62
2022/12/01 07:15:54;;;;;;;37.63;17.83;;;;;;;6.66;88.97;102702.06;5032608;28;20478;-63
2022/12/01 07:18:20;;;;;;;41.55;18.02;;;;;;;6.65;88.85;102710.78;5015739;28;20036;-62
2022/12/01 07:20:46;;;;;;;41.45;18.88;;;;;;;6.69;89.34;102707.50;5033308;28;20021;-63
2022/12/01 07:23:11;;;;;;;37.00;18.02;;;;;;;6.70;89.04;102716.28;5033216;28;20057;-63
2022/12/01 07:25:37;;;;;;;41.22;18.52;;;;;;;6.69;88.70;102723.28;5033283;28;20025;-62
2022/12/01 07:28:02;;;;;;;44.85;18.73;;;;;;;6.65;88.09;102726.53;5033218;28;20037;-63
2022/12/01 07:30:27;;;;;;;40.95;19.95;;;;;;;6.65;88.79;102716.03;5033545;28;20406;-62
2022/12/01 07:32:53;;;;;;;38.30;17.90;;;;;;;6.69;88.07;102725.00;5033141;28;20448;-62
2022/12/01 07:35:19;;;;;;;38.60;18.27;;;;;;;6.66;88.11;102714.31;5033116;28;20026;-62
2022/12/01 07:37:44;;;;;;;38.22;18.25;;;;;;;6.67;88.82;102722.25;5033453;28;20039;-62
2022/12/01 07:40:10;;;;;;;48.60;20.05;;;;;;;6.69;88.74;102719.75;5033061;28;20022;-62
2022/12/01 07:42:39;;;;;;;46.17;19.38;;;;;;;6.70;88.67;102718.91;5032698;28;20133;-63
2022/12/01 07:45:05;;;;;;;42.40;19.92;;;;;;;6.69;88.68;102714.50;5033039;28;20057;-63
2022/12/01 07:47:30;;;;;;;42.40;19.23;;;;;;;6.73;88.48;102725.25;5033131;28;20064;-63
2022/12/01 07:49:55;;;;;;;42.83;20.38;;;;;;;6.75;88.10;102722.69;5033000;28;20021;-62
2022/12/01 07:52:21;;;;;;;39.80;19.67;;;;;;;6.78;88.16;102725.50;5032964;28;20418;-62
2022/12/01 07:54:46;;;;;;;44.92;19.90;;;;;;;6.75;87.94;102726.22;5032879;28;20116;-62
2022/12/01 07:57:13;;;;;;;44.97;19.23;;;;;;;6.73;88.42;102726.97;5032955;28;20037;-62
2022/12/01 07:59:39;;;;;;;42.35;20.02;;;;;;;6.76;88.24;102730.66;5032901;28;20103;-62
2022/12/01 08:02:05;;;;;;;43.45;18.38;;;;;;;6.78;88.40;102730.78;5032879;28;20025;-63
2022/12/01 08:04:30;;;;;;;37.92;19.05;;;;;;;6.82;88.02;102730.13;5033059;28;20033;-63
2022/12/01 08:06:55;;;;;;;40.60;18.67;;;;;;;6.88;88.06;102726.94;5032842;28;20032;-62
2022/12/01 08:09:21;;;;;;;42.03;20.05;;;;;;;6.87;88.39;102735.63;5015034;28;20028;-62
2022/12/01 08:11:47;;;;;;;41.83;19.20;;;;;;;6.85;87.49;102743.44;5032523;28;20025;-62
2022/12/01 08:14:13;;;;;;;40.72;19.73;;;;;;;6.85;87.06;102746.06;5032692;28;20037;-62
2022/12/01 08:16:38;;;;;;;43.45;19.58;;;;;;;6.86;87.64;102749.59;5032690;28;20391;-63
2022/12/01 08:19:04;;;;;;;39.28;18.63;;;;;;;6.83;87.47;102745.06;5032827;28;20100;-63
2022/12/01 08:21:30;;;;;;;38.63;18.00;;;;;;;6.86;87.49;102733.84;5032761;28;20079;-62
2022/12/01 08:23:56;;;;;;;38.72;18.73;;;;;;;6.90;88.04;102741.97;5032514;28;20038;-62
2022/12/01 08:26:24;;;;;;;44.92;21.50;;;;;;;6.89;88.03;102740.13;5033599;28;20459;-62
2022/12/01 08:28:49;;;;;;;38.13;19.05;;;;;;;6.90;87.64;102743.69;5019385;28;20037;-62
2022/12/01 08:31:22;;;;;;;40.72;19.48;;;;;;;6.92;87.38;102748.19;5036539;28;20026;-62
2022/12/01 08:33:49;;;;;;;38.53;18.98;;;;;;;6.95;86.67;102748.38;5036698;28;20021;-63
2022/12/01 08:36:15;;;;;;;41.65;19.02;;;;;;;6.97;86.78;102748.47;5036813;28;20032;-62
2022/12/01 08:38:44;;;;;;;37.75;19.55;;;;;;;7.01;86.50;102750.44;5036458;28;20025;-62
2022/12/01 08:41:11;;;;;;;40.92;19.92;;;;;;;7.01;87.08;102750.44;5036158;28;20022;-63
2022/12/01 08:43:38;;;;;;;40.55;19.90;;;;;;;6.97;86.44;102748.47;5036314;28;20092;-62
2022/12/01 08:46:05;;;;;;;41.72;19.17;;;;;;;6.96;87.13;102755.44;5036575;28;20120;-62
2022/12/01 08:48:30;;;;;;;40.97;19.75;;;;;;;6.96;87.08;102752.81;5036424;28;20052;-62
2022/12/01 08:51:14;;;;;;;39.35;19.48;;;;;;;7.00;87.23;102754.78;5036266;28;20033;-63
2022/12/01 08:53:42;;;;;;;34.95;17.92;;;;;;;7.00;86.80;102749.53;5035536;28;20108;-62
2022/12/01 08:56:20;;;;;;;40.03;19.85;;;;;;;7.06;86.69;102755.94;5035969;28;20076;-62
2022/12/01 08:58:46;;;;;;;40.50;19.17;;;;;;;7.10;86.05;102753.56;5036032;28;20100;-62
2022/12/01 09:01:13;;;;;;;39.33;20.52;;;;;;;7.11;85.67;102754.47;5036078;28;20476;-63
2022/12/01 09:03:40;;;;;;;36.78;18.88;;;;;;;7.15;87.14;102753.81;5036257;28;20041;-63
2022/12/01 09:06:15;;;;;;;40.95;19.10;;;;;;;7.15;85.73;102752.13;5035995;28;20104;-65
2022/12/01 09:08:41;;;;;;;39.33;20.42;;;;;;;7.20;84.77;102755.00;5035996;28;20109;-62
2022/12/01 09:11:12;;;;;;;38.70;19.88;;;;;;;7.20;84.60;102752.38;5035842;28;20037;-64
2022/12/01 09:13:39;;;;;;;38.03;18.83;;;;;;;7.20;85.58;102755.91;5035962;28;20064;-62
2022/12/01 09:16:07;;;;;;;42.47;19.90;;;;;;;7.17;84.89;102750.47;5035767;28;20080;-62
2022/12/01 09:18:33;;;;;;;41.10;20.23;;;;;;;7.19;85.11;102756.72;5035699;28;20547;-62
2022/12/01 09:20:59;;;;;;;41.50;19.35;;;;;;;7.21;85.17;102749.81;5035718;28;20072;-62
2022/12/01 09:23:25;;;;;;;46.22;21.40;;;;;;;7.23;84.13;102757.78;5035644;28;20045;-62
2022/12/01 09:25:52;;;;;;;40.60;20.90;;;;;;;7.25;85.25;102764.06;5035586;28;20029;-62
2022/12/01 09:28:18;;;;;;;38.92;20.02;;;;;;;7.26;84.06;102764.13;5035594;28;20026;-62
2022/12/01 09:30:44;;;;;;;40.78;20.48;;;;;;;7.32;84.68;102766.19;5035492;28;20526;-63
2022/12/01 09:33:11;;;;;;;43.33;20.85;;;;;;;7.39;84.51;102770.97;5035450;28;20036;-63
2022/12/01 09:35:36;;;;;;;40.08;20.10;;;;;;;7.43;84.02;102762.41;5017683;28;20030;-62
2022/12/01 09:38:03;;;;;;;41.72;21.20;;;;;;;7.51;84.30;102770.72;5034498;28;20021;-62
2022/12/01 09:40:35;;;;;;;42.70;21.02;;;;;;;7.54;83.63;102760.38;5035600;28;20055;-62
2022/12/01 09:43:04;;;;;;;42.72;20.05;;;;;;;7.59;83.67;102771.16;5034971;28;20049;-62
2022/12/01 09:45:35;;;;;;;42.40;19.60;;;;;;;7.60;83.53;102768.59;5035342;28;20438;-62
2022/12/01 09:48:03;;;;;;;48.30;21.17;;;;;;;7.65;83.43;102771.47;5035282;28;20029;-62
2022/12/01 09:50:30;;;;;;;40.53;20.25;;;;;;;7.63;82.68;102770.50;5035367;28;20030;-62
2022/12/01 09:52:57;;;;;;;41.95;21.13;;;;;;;7.62;82.27;102768.66;5035125;28;20025;-63
2022/12/01 09:55:24;;;;;;;45.05;20.55;;;;;;;7.61;82.17;102765.13;5035269;28;20371;-62
2022/12/01 09:57:53;;;;;;;41.15;20.67;;;;;;;7.67;83.09;102769.84;5035220;28;20032;-62
2022/12/01 10:00:25;;;;;;;41.08;20.45;;;;;;;7.68;82.03;102764.66;5034969;28;20021;-61
2022/12/01 10:03:17;;;;;;;40.47;20.75;;;;;;;7.73;82.27;102765.78;5034946;28;20041;-62
2022/12/01 10:05:49;;;;;;;39.97;20.58;;;;;;;7.67;81.76;102749.69;5017125;28;20475;-62
2022/12/01 10:08:20;;;;;;;41.38;21.08;;;;;;;7.82;83.00;102756.56;5034864;28;20025;-62
2022/12/01 10:10:48;;;;;;;44.17;20.98;;;;;;;7.88;81.80;102751.63;5034854;28;20068;-62
2022/12/01 10:13:22;;;;;;;47.95;22.13;;;;;;;7.87;80.87;102755.09;5034473;28;20545;-62
2022/12/01 10:15:59;;;;;;;40.67;19.45;;;;;;;7.95;81.90;102757.28;5017459;28;20032;-62
2022/12/01 10:18:52;;;;;;;43.97;22.02;;;;;;;7.97;81.51;102760.91;5034738;28;20032;-62
2022/12/01 10:21:44;;;;;;;42.53;20.70;;;;;;;8.04;81.12;102751.59;5034631;28;20026;-62
2022/12/01 10:24:25;;;;;;;42.85;21.27;;;;;;;8.02;81.41;102745.38;5016842;28;20039;-62
2022/12/01 10:27:06;;;;;;;44.72;20.42;;;;;;;8.01;81.13;102741.81;5034423;28;20029;-62
2022/12/01 10:29:41;;;;;;;40.90;20.60;;;;;;;7.97;80.13;102739.88;5034451;28;20021;-62
2022/12/01 10:32:14;;;;;;;38.03;20.27;;;;;;;8.07;80.13;102742.97;5034554;28;20064;-62
2022/12/01 10:34:42;;;;;;;42.10;21.45;;;;;;;8.04;78.34;102741.97;5034239;28;20055;-61
2022/12/01 10:37:19;;;;;;;42.55;19.77;;;;;;;8.09;79.77;102733.41;5034317;28;20430;-62
2022/12/01 10:39:47;;;;;;;42.75;21.48;;;;;;;8.14;80.21;102734.56;5034259;28;20475;-62
2022/12/01 10:42:20;;;;;;;42.58;21.08;;;;;;;8.18;79.82;102728.59;5033732;28;20088;-61
2022/12/01 10:44:46;;;;;;;41.42;20.55;;;;;;;8.20;78.95;102726.97;5034308;28;20033;-62
2022/12/01 10:47:20;;;;;;;43.25;21.33;;;;;;;8.22;79.14;102727.94;5034318;28;20037;-61
2022/12/01 10:49:46;;;;;;;41.88;20.70;;;;;;;8.22;79.14;102727.94;5034060;28;20394;-62
2022/12/01 10:52:36;;;;;;;41.97;21.38;;;;;;;8.24;79.86;102727.19;5033993;28;20021;-63
2022/12/01 10:55:22;;;;;;;39.65;20.80;;;;;;;8.27;79.23;102726.47;5004921;28;20117;-62
2022/12/01 10:57:49;;;;;;;43.30;21.00;;;;;;;8.26;78.94;102722.91;5016160;28;20389;-62
2022/12/01 11:00:23;;;;;;;40.97;21.15;;;;;;;8.27;79.24;102713.28;5033814;28;20021;-62
2022/12/01 11:02:48;;;;;;;39.33;20.17;;;;;;;8.37;79.11;102720.84;5033829;28;20536;-62
2022/12/01 11:05:23;;;;;;;43.15;20.95;;;;;;;8.40;79.64;102713.09;5034019;28;20037;-62
2022/12/01 11:07:49;;;;;;;41.30;20.50;;;;;;;8.44;78.66;102715.06;5033690;28;20147;-63
2022/12/01 11:10:14;;;;;;;47.28;21.77;;;;;;;8.42;78.82;102711.44;5033554;28;20028;-62
2022/12/01 11:12:56;;;;;;;46.13;21.00;;;;;;;8.43;79.82;102707.06;5033594;28;20022;-62
2022/12/01 11:15:25;;;;;;;41.30;21.00;;;;;;;8.39;78.57;102711.28;5033535;28;20032;-62
2022/12/01 11:18:06;;;;;;;44.25;21.27;;;;;;;8.39;79.18;102713.00;5033450;28;20034;-62
2022/12/01 11:20:36;;;;;;;41.28;20.17;;;;;;;8.40;79.51;102706.94;5033757;28;20041;-62
2022/12/01 11:23:19;;;;;;;38.47;19.63;;;;;;;8.45;79.55;102710.69;5033427;28;20475;-62
2022/12/01 11:26:23;;;;;;;42.40;21.00;;;;;;;8.46;79.49;102701.94;5033442;28;20101;-62
2022/12/01 11:28:55;;;;;;;40.83;20.38;;;;;;;8.45;79.18;102708.97;5033621;28;20034;-62